Time;durP1;ratioP1;P1;durP2;ratioP2;P2;SDS_P1;SDS_P2;PMS_P1;PMS_P2;Temp;Humidity;BMP_temperature;BMP_pressure;BME280_temperature;BME280_humidity;BME280_pressure;Samples;Min_cycle;Max_cycle;Signal;HPM_P1;HPM_P2
2023/08/03 00:00:13;;;;;;;10.47;2.33;;;20.10;1.00;;;;;;5010230;28;20186;-75
2023/08/03 00:02:39;;;;;;;9.63;2.27;;;20.10;1.00;;;;;;5007973;28;20248;-75
2023/08/03 00:05:05;;;;;;;10.23;2.40;;;20.10;1.00;;;;;;5007568;28;20186;-76
2023/08/03 00:07:31;;;;;;;9.47;1.93;;;20.10;1.00;;;;;;5007590;28;20301;-75
2023/08/03 00:09:57;;;;;;;7.57;2.03;;;;;;;;;;5009243;28;20449;-75
2023/08/03 00:12:23;;;;;;;7.90;2.30;;;20.00;1.00;;;;;;5007749;28;20491;-75
2023/08/03 00:14:49;;;;;;;9.30;2.20;;;20.00;1.00;;;;;;5008121;28;20281;-75
2023/08/03 00:17:15;;;;;;;9.90;2.03;;;20.00;1.00;;;;;;5007425;28;20553;-76
2023/08/03 00:19:40;;;;;;;10.83;2.70;;;20.00;1.00;;;;;;5010757;28;20536;-75
2023/08/03 00:22:06;;;;;;;8.03;2.47;;;20.10;1.00;;;;;;5009773;28;20711;-76
2023/08/03 00:24:32;;;;;;;10.40;2.03;;;20.10;1.00;;;;;;5010719;28;20286;-75
2023/08/03 00:26:57;;;;;;;13.73;2.53;;;20.10;1.00;;;;;;5009990;28;20183;-75
2023/08/03 00:29:23;;;;;;;7.03;2.20;;;20.10;1.00;;;;;;5010322;28;20201;-75
2023/08/03 00:31:48;;;;;;;8.67;1.93;;;20.30;1.00;;;;;;5009733;28;20206;-75
2023/08/03 00:34:14;;;;;;;7.13;2.20;;;20.20;1.00;;;;;;5010890;28;20186;-76
2023/08/03 00:36:39;;;;;;;8.77;1.80;;;20.10;1.00;;;;;;5009329;28;20255;-75
2023/08/03 00:39:05;;;;;;;11.60;2.40;;;20.00;1.00;;;;;;5014188;28;20615;-76
2023/08/03 00:41:31;;;;;;;7.53;2.27;;;20.00;1.00;;;;;;5008883;28;20214;-76
2023/08/03 00:43:56;;;;;;;9.37;2.30;;;20.00;1.00;;;;;;5008754;28;20280;-75
2023/08/03 00:46:22;;;;;;;5.07;1.70;;;20.00;1.00;;;;;;5009997;28;21544;-75
2023/08/03 00:48:47;;;;;;;7.10;2.17;;;20.00;1.00;;;;;;5009355;28;20553;-75
2023/08/03 00:51:13;;;;;;;10.83;2.60;;;20.00;1.00;;;;;;5009835;28;20260;-75
2023/08/03 00:53:39;;;;;;;6.83;1.87;;;20.10;1.00;;;;;;5009823;28;20190;-75
2023/08/03 00:56:05;;;;;;;5.90;1.87;;;20.10;1.00;;;;;;5009390;28;20182;-76
2023/08/03 00:58:31;;;;;;;7.87;2.17;;;20.20;1.00;;;;;;5001853;28;20457;-76
2023/08/03 01:00:56;;;;;;;10.37;1.93;;;20.40;1.00;;;;;;5005572;28;20210;-75
2023/08/03 01:03:22;;;;;;;10.23;2.30;;;20.20;1.00;;;;;;5003752;28;20201;-77
2023/08/03 01:05:47;;;;;;;7.70;1.83;;;20.20;1.00;;;;;;5002879;28;20190;-75
2023/08/03 01:08:13;;;;;;;8.33;1.93;;;20.30;1.00;;;;;;5007536;28;20236;-75
2023/08/03 01:10:38;;;;;;;7.53;1.80;;;20.20;1.00;;;;;;5009289;28;20230;-76
2023/08/03 01:13:04;;;;;;;11.70;2.10;;;20.20;1.00;;;;;;5009459;28;20194;-75
2023/08/03 01:15:30;;;;;;;6.97;1.77;;;20.20;1.00;;;;;;5009242;28;20190;-74
2023/08/03 01:17:55;;;;;;;5.67;1.63;;;20.30;1.00;;;;;;5007048;28;20202;-75
2023/08/03 01:20:21;;;;;;;7.67;2.10;;;20.20;1.00;;;;;;5008591;28;20201;-75
2023/08/03 01:22:47;;;;;;;8.30;1.87;;;20.20;1.00;;;;;;5009695;28;20685;-75
2023/08/03 01:25:13;;;;;;;10.13;1.70;;;20.30;1.00;;;;;;5008105;28;20460;-75
2023/08/03 01:27:38;;;;;;;9.90;2.30;;;20.30;1.00;;;;;;5009385;28;20213;-75
2023/08/03 01:30:05;;;;;;;6.83;1.60;;;20.30;1.00;;;;;;5009219;28;20226;-76
2023/08/03 01:32:31;;;;;;;6.43;1.97;;;20.30;1.00;;;;;;5007714;28;20191;-75
2023/08/03 01:34:57;;;;;;;6.67;2.10;;;20.20;1.00;;;;;;5009148;28;20440;-75
2023/08/03 01:37:24;;;;;;;8.47;1.97;;;20.20;1.00;;;;;;5008712;28;20445;-76
2023/08/03 01:39:49;;;;;;;10.93;2.00;;;20.20;1.00;;;;;;5009360;28;20190;-75
2023/08/03 01:42:15;;;;;;;6.00;1.73;;;20.10;1.00;;;;;;5008594;28;20675;-75
2023/08/03 01:44:41;;;;;;;6.60;1.70;;;20.40;1.00;;;;;;5009227;28;20661;-75
2023/08/03 01:47:07;;;;;;;5.80;1.93;;;20.10;1.00;;;;;;5008086;28;20277;-75
2023/08/03 01:49:34;;;;;;;8.97;2.10;;;20.10;1.00;;;;;;5009564;28;20493;-75
2023/08/03 01:51:59;;;;;;;9.10;2.40;;;20.10;1.00;;;;;;5008410;28;20233;-74
2023/08/03 01:54:26;;;;;;;9.03;2.03;;;20.20;1.00;;;;;;5009113;28;20453;-75
2023/08/03 01:56:55;;;;;;;8.80;2.20;;;20.00;1.00;;;;;;5008787;28;20716;-75
2023/08/03 01:59:21;;;;;;;9.10;1.80;;;20.00;1.00;;;;;;5001355;28;20440;-76
2023/08/03 02:01:46;;;;;;;7.00;1.90;;;20.00;1.00;;;;;;5006680;28;20469;-75
2023/08/03 02:04:14;;;;;;;6.90;1.67;;;20.00;1.00;;;;;;5009793;28;20256;-75
2023/08/03 02:06:39;;;;;;;5.23;1.80;;;20.00;1.00;;;;;;5007576;28;20206;-78
2023/08/03 02:09:05;;;;;;;7.27;1.90;;;19.90;1.00;;;;;;5010889;28;20859;-75
2023/08/03 02:11:31;;;;;;;5.40;1.37;;;20.00;1.00;;;;;;5008852;28;20244;-75
2023/08/03 02:13:56;;;;;;;5.93;1.57;;;19.90;1.00;;;;;;5008261;28;20534;-75
2023/08/03 02:16:22;;;;;;;4.27;1.37;;;19.90;1.00;;;;;;5008629;28;20266;-75
2023/08/03 02:18:47;;;;;;;9.10;1.70;;;19.80;1.00;;;;;;5007319;28;20186;-76
2023/08/03 02:21:13;;;;;;;4.90;1.50;;;19.80;1.00;;;;;;5007966;28;20233;-75
2023/08/03 02:23:38;;;;;;;8.80;2.07;;;19.70;1.00;;;;;;5007661;28;20656;-75
2023/08/03 02:26:04;;;;;;;6.20;1.97;;;19.70;1.00;;;;;;5007042;28;20182;-76
2023/08/03 02:28:30;;;;;;;6.63;1.80;;;19.70;1.00;;;;;;5007592;28;20186;-75
2023/08/03 02:30:56;;;;;;;9.90;2.10;;;19.60;1.00;;;;;;5008303;28;20680;-75
2023/08/03 02:33:21;;;;;;;6.37;1.47;;;19.60;1.00;;;;;;5000846;28;20417;-75
2023/08/03 02:35:47;;;;;;;4.87;1.60;;;19.60;1.00;;;;;;5008519;28;20182;-75
2023/08/03 02:38:12;;;;;;;4.93;1.30;;;19.90;1.00;;;;;;5008195;28;20194;-76
2023/08/03 02:40:38;;;;;;;6.83;1.63;;;19.70;1.00;;;;;;5008335;28;20305;-75
2023/08/03 02:43:03;;;;;;;5.87;1.70;;;19.80;1.00;;;;;;5008175;28;20217;-75
2023/08/03 02:45:29;;;;;;;6.43;1.90;;;19.70;1.00;;;;;;5008306;28;20182;-75
2023/08/03 02:47:55;;;;;;;8.27;1.93;;;19.70;1.00;;;;;;5008514;28;20190;-75
2023/08/03 02:50:21;;;;;;;7.10;1.73;;;19.70;1.00;;;;;;5008098;28;20226;-76
2023/08/03 02:52:46;;;;;;;7.23;1.50;;;19.80;1.00;;;;;;5006865;28;20899;-75
2023/08/03 02:55:12;;;;;;;6.80;1.73;;;19.70;1.00;;;;;;5007165;28;20657;-76
2023/08/03 02:57:37;;;;;;;6.10;1.60;;;19.70;1.00;;;;;;5013650;28;20195;-76
2023/08/03 03:00:05;;;;;;;5.50;1.70;;;19.60;1.00;;;;;;5006597;28;20194;-76
2023/08/03 03:02:31;;;;;;;6.00;1.90;;;19.60;1.00;;;;;;5006680;28;20221;-75
2023/08/03 03:04:56;;;;;;;14.30;2.13;;;19.60;1.00;;;;;;5008651;28;20425;-75
2023/08/03 03:07:22;;;;;;;5.67;1.63;;;19.60;1.00;;;;;;5006146;28;20588;-76
2023/08/03 03:09:47;;;;;;;5.10;2.00;;;19.60;1.00;;;;;;5007199;28;20564;-76
2023/08/03 03:12:13;;;;;;;6.23;1.70;;;19.60;1.00;;;;;;5005651;28;20256;-75
2023/08/03 03:14:38;;;;;;;7.40;2.03;;;19.60;1.00;;;;;;5006729;28;20197;-75
2023/08/03 03:17:04;;;;;;;7.37;2.00;;;19.50;1.00;;;;;;5009041;28;20269;-74
2023/08/03 03:19:30;;;;;;;7.43;1.40;;;19.40;1.00;;;;;;5010597;28;20214;-75
2023/08/03 03:21:55;;;;;;;5.70;1.47;;;19.40;1.00;;;;;;5011460;28;20210;-75
2023/08/03 03:24:21;;;;;;;4.93;1.50;;;19.40;1.00;;;;;;5009638;28;20186;-77
2023/08/03 03:26:47;;;;;;;5.13;1.60;;;19.70;1.00;;;;;;5011291;28;20572;-76
2023/08/03 03:29:12;;;;;;;6.97;1.90;;;19.30;1.00;;;;;;5009278;28;20186;-76
2023/08/03 03:31:38;;;;;;;3.03;1.57;;;19.20;1.00;;;;;;5011281;28;20207;-75
2023/08/03 03:34:03;;;;;;;4.60;1.47;;;19.20;1.00;;;;;;5010040;28;20197;-76
2023/08/03 03:36:29;;;;;;;5.53;1.60;;;19.20;1.00;;;;;;5012665;28;20200;-76
2023/08/03 03:38:54;;;;;;;11.83;1.63;;;19.20;1.00;;;;;;5011214;28;20190;-76
2023/08/03 03:41:20;;;;;;;5.90;1.70;;;19.10;1.00;;;;;;5010492;28;20721;-75
2023/08/03 03:43:46;;;;;;;4.40;1.50;;;19.10;1.00;;;;;;5010986;28;20193;-76
2023/08/03 03:46:11;;;;;;;4.13;1.37;;;19.10;1.00;;;;;;5011045;28;20715;-75
2023/08/03 03:48:37;;;;;;;4.47;1.40;;;19.00;1.00;;;;;;5009791;28;20185;-75
2023/08/03 03:51:02;;;;;;;3.47;1.20;;;19.00;1.00;;;;;;5011000;28;20206;-76
2023/08/03 03:53:28;;;;;;;6.17;1.60;;;19.00;1.00;;;;;;5010936;28;20237;-75
2023/08/03 03:55:53;;;;;;;3.73;1.00;;;19.00;1.00;;;;;;5009763;28;20187;-75
2023/08/03 03:58:19;;;;;;;3.50;1.47;;;18.90;1.00;;;;;;5016448;28;20265;-75
2023/08/03 04:00:44;;;;;;;3.80;1.40;;;19.00;1.00;;;;;;5010302;28;20202;-76
2023/08/03 04:03:10;;;;;;;4.50;1.40;;;19.10;1.00;;;;;;5010700;28;20210;-75
2023/08/03 04:05:37;;;;;;;6.27;1.67;;;19.00;1.00;;;;;;5010838;28;20601;-76
2023/08/03 04:08:04;;;;;;;5.07;1.23;;;19.00;1.00;;;;;;5010678;28;20183;-76
2023/08/03 04:10:30;;;;;;;5.33;1.33;;;19.00;1.00;;;;;;5009731;28;20978;-75
2023/08/03 04:12:55;;;;;;;6.67;1.50;;;19.10;1.00;;;;;;5010555;28;20433;-76
2023/08/03 04:15:21;;;;;;;4.00;1.13;;;19.00;1.00;;;;;;5010367;28;20984;-76
2023/08/03 04:17:48;;;;;;;5.23;1.63;;;19.00;1.00;;;;;;5009148;28;20277;-76
2023/08/03 04:20:17;;;;;;;5.60;1.40;;;19.00;1.00;;;;;;5010074;28;20206;-76
2023/08/03 04:22:43;;;;;;;4.23;1.37;;;19.00;1.00;;;;;;5009027;28;20847;-76
2023/08/03 04:25:08;;;;;;;4.57;1.43;;;19.00;1.00;;;;;;5010253;28;20429;-76
2023/08/03 04:27:34;;;;;;;3.30;1.37;;;19.00;1.00;;;;;;5009507;28;20199;-76
2023/08/03 04:30:00;;;;;;;5.97;1.33;;;18.80;1.00;;;;;;5009953;28;20718;-76
2023/08/03 04:32:25;;;;;;;2.80;1.20;;;18.90;1.00;;;;;;5008580;28;20743;-76
2023/08/03 04:34:51;;;;;;;10.20;1.67;;;18.80;1.00;;;;;;5010471;28;20265;-75
2023/08/03 04:37:16;;;;;;;6.63;1.50;;;19.10;1.00;;;;;;5009615;28;20193;-75
2023/08/03 04:39:42;;;;;;;5.33;1.50;;;18.40;1.00;;;;;;5010150;28;20186;-74
2023/08/03 04:42:07;;;;;;;3.73;1.30;;;18.00;1.00;;;;;;5008287;28;20275;-75
2023/08/03 04:44:33;;;;;;;4.23;1.43;;;17.40;1.00;;;;;;5002205;28;20641;-75
2023/08/03 04:46:59;;;;;;;2.73;1.43;;;17.30;1.00;;;;;;5007875;28;20178;-73
2023/08/03 04:49:25;;;;;;;4.77;1.60;;;16.80;1.00;;;;;;5007596;28;20195;-75
2023/08/03 04:51:51;;;;;;;4.43;1.70;;;16.60;1.00;;;;;;5009909;28;20586;-75
2023/08/03 04:54:17;;;;;;;4.70;1.60;;;16.50;1.00;;;;;;5009468;28;20433;-75
2023/08/03 04:56:43;;;;;;;2.83;1.30;;;16.50;1.00;;;;;;5009713;28;20444;-75
2023/08/03 04:59:08;;;;;;;4.67;1.30;;;16.40;1.00;;;;;;5008676;28;20190;-75
2023/08/03 05:01:34;;;;;;;3.00;1.27;;;16.50;1.00;;;;;;5009251;28;20611;-74
2023/08/03 05:04:02;;;;;;;5.43;1.30;;;16.50;1.00;;;;;;5008207;28;20275;-75
2023/08/03 05:06:28;;;;;;;3.90;1.37;;;16.50;1.00;;;;;;5006135;28;20195;-76
2023/08/03 05:08:53;;;;;;;5.73;1.23;;;16.60;1.00;;;;;;5008983;28;20534;-75
2023/08/03 05:11:19;;;;;;;4.70;1.30;;;16.60;1.00;;;;;;5007011;28;20300;-75
2023/08/03 05:13:45;;;;;;;5.30;1.60;;;16.60;1.00;;;;;;5002760;28;20186;-76
2023/08/03 05:16:10;;;;;;;4.10;1.40;;;16.60;1.00;;;;;;5007967;28;20865;-75
2023/08/03 05:18:36;;;;;;;5.03;1.57;;;16.70;1.00;;;;;;5009135;28;20187;-75
2023/08/03 05:21:01;;;;;;;2.70;1.23;;;18.80;1.00;;;;;;5007446;28;20216;-75
2023/08/03 05:23:27;;;;;;;2.70;1.10;;;17.00;1.00;;;;;;5013965;28;20186;-75
2023/08/03 05:25:56;;;;;;;3.17;1.20;;;17.10;1.00;;;;;;5012073;28;20182;-75
2023/08/03 05:28:23;;;;;;;5.30;1.80;;;17.20;1.00;;;;;;5009580;28;20391;-76
2023/08/03 05:30:49;;;;;;;5.17;1.50;;;17.30;1.00;;;;;;5009176;28;20450;-76
2023/08/03 05:33:15;;;;;;;8.37;1.77;;;17.40;1.00;;;;;;5008576;28;20483;-75
2023/08/03 05:35:41;;;;;;;6.97;1.50;;;17.60;1.00;;;;;;5008638;28;20189;-75
2023/08/03 05:38:06;;;;;;;3.30;1.53;;;17.60;1.00;;;;;;5012359;28;20209;-75
2023/08/03 05:40:32;;;;;;;4.13;1.10;;;17.80;1.00;;;;;;5008568;28;20921;-75
2023/08/03 05:42:57;;;;;;;8.33;1.60;;;17.80;1.00;;;;;;5008756;28;20232;-75
2023/08/03 05:45:45;;;;;;;4.97;1.63;;;18.00;1.00;;;;;;5008242;28;20533;-76
2023/08/03 05:48:13;;;;;;;2.73;1.20;;;18.00;1.00;;;;;;5009106;28;20266;-75
2023/08/03 05:50:41;;;;;;;4.97;1.50;;;18.10;1.00;;;;;;5006971;28;20456;-75
2023/08/03 05:53:09;;;;;;;7.40;1.87;;;18.10;1.00;;;;;;5009131;28;20510;-75
2023/08/03 05:55:35;;;;;;;5.03;1.60;;;18.20;1.00;;;;;;5007136;28;20727;-74
2023/08/03 05:58:01;;;;;;;5.18;1.50;;;18.20;1.00;;;;;;4989483;28;20433;-76
2023/08/03 06:00:28;;;;;;;9.53;1.50;;;18.40;1.00;;;;;;4994155;28;20233;-75
2023/08/03 06:02:56;;;;;;;4.67;1.40;;;18.40;1.00;;;;;;5001912;28;20468;-76
2023/08/03 06:05:56;;;;;;;3.20;1.27;;;18.40;1.00;;;;;;4997947;28;20969;-75
2023/08/03 06:08:24;;;;;;;5.27;1.40;;;18.50;1.00;;;;;;4994821;28;20430;-75
2023/08/03 06:10:51;;;;;;;5.87;1.37;;;18.50;1.00;;;;;;5007762;28;20460;-75
2023/08/03 06:13:25;;;;;;;2.83;1.47;;;18.50;1.00;;;;;;5008806;28;20425;-77
2023/08/03 06:15:50;;;;;;;3.50;1.30;;;18.50;1.00;;;;;;5002313;28;20441;-76
2023/08/03 06:18:18;;;;;;;6.30;1.50;;;18.50;1.00;;;;;;5009366;28;20418;-76
2023/08/03 06:20:46;;;;;;;4.27;1.30;;;18.50;1.00;;;;;;5008469;28;20557;-76
2023/08/03 06:23:20;;;;;;;8.23;1.70;;;19.20;1.00;;;;;;5009242;28;20531;-75
2023/08/03 06:25:47;;;;;;;5.30;1.63;;;18.60;1.00;;;;;;4994159;28;20429;-76
2023/08/03 06:28:16;;;;;;;7.67;2.03;;;18.60;1.00;;;;;;5005720;28;20430;-77
2023/08/03 06:30:42;;;;;;;5.70;1.73;;;18.60;1.00;;;;;;5003029;28;20492;-77
2023/08/03 06:33:16;;;;;;;3.63;1.37;;;18.50;1.00;;;;;;5000069;28;20474;-76
2023/08/03 06:35:43;;;;;;;5.30;1.60;;;18.60;1.00;;;;;;4992502;28;20536;-77
2023/08/03 06:38:12;;;;;;;4.43;1.53;;;18.60;1.00;;;;;;5001560;28;20530;-76
2023/08/03 06:40:41;;;;;;;6.07;1.87;;;18.60;1.00;;;;;;5006931;28;20461;-78
2023/08/03 06:43:11;;;;;;;4.10;1.40;;;18.60;1.00;;;;;;5003606;28;20465;-75
2023/08/03 06:45:36;;;;;;;4.90;1.50;;;18.60;1.00;;;;;;5005544;28;20429;-76
2023/08/03 06:48:03;;;;;;;7.57;1.73;;;18.70;1.00;;;;;;5005856;28;20451;-76
2023/08/03 06:50:29;;;;;;;10.10;1.87;;;18.70;1.00;;;;;;5006465;28;20237;-76
2023/08/03 06:52:56;;;;;;;9.70;2.50;;;18.80;1.00;;;;;;5008485;28;20441;-75
2023/08/03 06:55:22;;;;;;;4.23;1.30;;;18.80;1.00;;;;;;5007336;28;21534;-76
2023/08/03 06:57:47;;;;;;;4.43;1.40;;;18.90;1.00;;;;;;5010722;28;20441;-75
2023/08/03 07:00:14;;;;;;;4.50;1.60;;;18.70;1.00;;;;;;5007961;28;20183;-76
2023/08/03 07:02:40;;;;;;;2.73;1.37;;;18.80;1.00;;;;;;5007883;28;20211;-77
2023/08/03 07:05:05;;;;;;;4.50;1.60;;;18.80;1.00;;;;;;5009684;28;21013;-76
2023/08/03 07:07:31;;;;;;;4.37;1.63;;;18.80;1.00;;;;;;5009120;28;20192;-77
2023/08/03 07:09:57;;;;;;;5.23;1.60;;;18.70;1.00;;;;;;5008244;28;20201;-75
2023/08/03 07:12:22;;;;;;;3.90;1.40;;;18.70;1.00;;;;;;5006730;28;20251;-75
2023/08/03 07:14:48;;;;;;;10.13;1.57;;;18.80;1.00;;;;;;5008821;28;20186;-76
2023/08/03 07:17:14;;;;;;;4.80;1.57;;;18.80;1.00;;;;;;5009284;28;20206;-75
2023/08/03 07:19:41;;;;;;;8.40;1.80;;;18.70;1.00;;;;;;5008594;28;20194;-76
2023/08/03 07:22:07;;;;;;;4.77;1.70;;;18.60;1.00;;;;;;5010106;28;20205;-75
2023/08/03 07:24:33;;;;;;;9.93;2.07;;;18.70;1.00;;;;;;5010659;28;20445;-77
2023/08/03 07:27:00;;;;;;;7.10;1.20;;;18.50;1.00;;;;;;5006852;28;20213;-76
2023/08/03 07:29:27;;;;;;;4.20;1.43;;;18.50;1.00;;;;;;5001690;28;20441;-76
2023/08/03 07:31:52;;;;;;;4.00;1.20;;;18.60;1.00;;;;;;5005489;28;20548;-76
2023/08/03 07:34:18;;;;;;;4.03;1.63;;;18.60;1.00;;;;;;5008860;28;20517;-77
2023/08/03 07:36:44;;;;;;;5.37;1.50;;;18.90;1.00;;;;;;5010056;28;20194;-76
2023/08/03 07:39:10;;;;;;;7.20;1.73;;;18.80;1.00;;;;;;5014370;28;20189;-76
2023/08/03 07:41:36;;;;;;;3.57;1.40;;;18.30;1.00;;;;;;5009576;28;20464;-75
2023/08/03 07:44:02;;;;;;;2.37;1.20;;;18.40;1.00;;;;;;5009887;28;20256;-75
2023/08/03 07:46:29;;;;;;;7.50;2.20;;;18.60;1.00;;;;;;5004186;28;20208;-75
2023/08/03 07:48:56;;;;;;;6.00;1.70;;;18.30;1.00;;;;;;5005514;28;20429;-74
2023/08/03 07:51:21;;;;;;;4.23;1.50;;;18.40;1.00;;;;;;5008861;28;20464;-76
2023/08/03 07:53:47;;;;;;;4.50;1.57;;;18.40;1.00;;;;;;5008043;28;20445;-76
2023/08/03 07:56:18;;;;;;;3.60;1.57;;;18.60;1.00;;;;;;5008163;28;20660;-77
2023/08/03 07:58:45;;;;;;;8.37;1.73;;;18.70;1.00;;;;;;5007726;28;20244;-76
2023/08/03 08:01:10;;;;;;;4.17;1.50;;;18.70;1.00;;;;;;5007359;28;20465;-74
2023/08/03 08:03:37;;;;;;;5.43;1.50;;;18.70;1.00;;;;;;5006908;28;20441;-75
2023/08/03 08:06:05;;;;;;;6.30;1.50;;;18.70;1.00;;;;;;5007640;28;20195;-76
2023/08/03 08:08:30;;;;;;;3.10;1.33;;;18.80;1.00;;;;;;5007708;28;20557;-76
2023/08/03 08:10:56;;;;;;;5.67;1.60;;;18.90;1.00;;;;;;5007789;28;20830;-77
2023/08/03 08:13:21;;;;;;;4.33;1.60;;;19.00;1.00;;;;;;5008533;28;20241;-76
2023/08/03 08:15:47;;;;;;;8.77;3.00;;;19.00;1.00;;;;;;5008225;28;20190;-76
2023/08/03 08:18:12;;;;;;;7.50;1.53;;;19.10;1.00;;;;;;5008841;28;20197;-74
2023/08/03 08:20:39;;;;;;;3.70;1.20;;;19.10;1.00;;;;;;5008214;28;20678;-77
2023/08/03 08:23:04;;;;;;;7.40;1.70;;;18.80;1.00;;;;;;5008509;28;20202;-75
2023/08/03 08:25:37;;;;;;;6.77;1.50;;;18.80;1.00;;;;;;5009337;28;20478;-78
2023/08/03 08:28:03;;;;;;;6.23;1.90;;;18.70;1.00;;;;;;5007547;28;20733;-75
2023/08/03 08:30:29;;;;;;;3.50;1.40;;;18.60;1.00;;;;;;5008192;28;20465;-75
2023/08/03 08:32:54;;;;;;;3.80;1.83;;;18.70;1.00;;;;;;5005610;28;20377;-77
2023/08/03 08:35:20;;;;;;;3.80;1.47;;;18.90;1.00;;;;;;5009562;28;20186;-76
2023/08/03 08:37:45;;;;;;;4.87;1.90;;;18.60;1.00;;;;;;5007652;28;20191;-75
2023/08/03 08:40:11;;;;;;;9.00;1.67;;;18.40;1.00;;;;;;5004499;28;20191;-78
2023/08/03 08:42:37;;;;;;;6.80;2.10;;;18.40;1.00;;;;;;5008469;28;20206;-76
2023/08/03 08:45:04;;;;;;;6.17;2.17;;;18.50;1.00;;;;;;5006689;28;20473;-77
2023/08/03 08:47:30;;;;;;;8.23;1.53;;;18.60;1.00;;;;;;5004729;28;20182;-75
2023/08/03 08:49:55;;;;;;;8.80;2.30;;;18.60;1.00;;;;;;5008812;28;20446;-76
2023/08/03 08:52:21;;;;;;;3.37;1.50;;;18.40;1.00;;;;;;5005612;28;20210;-77
2023/08/03 08:54:47;;;;;;;3.40;1.70;;;18.30;1.00;;;;;;5006299;28;20678;-76
2023/08/03 08:57:12;;;;;;;4.73;1.50;;;18.30;1.00;;;;;;5005198;28;20911;-77
2023/08/03 08:59:56;;;;;;;5.13;1.40;;;18.30;1.00;;;;;;5002980;28;20192;-76
2023/08/03 09:02:25;;;;;;;4.10;1.47;;;18.40;1.00;;;;;;5003815;28;20217;-76
2023/08/03 09:04:50;;;;;;;4.23;1.50;;;18.40;1.00;;;;;;5005687;28;20455;-77
2023/08/03 09:07:17;;;;;;;6.13;1.50;;;18.40;1.00;;;;;;5000655;28;20429;-76
2023/08/03 09:09:42;;;;;;;9.90;2.13;;;18.60;1.00;;;;;;5005057;28;20545;-76
2023/08/03 09:12:08;;;;;;;4.03;2.40;;;18.50;1.00;;;;;;5004984;28;20477;-77
2023/08/03 09:14:49;;;;;;;12.93;5.03;;;19.90;1.00;;;;;;5005817;28;20182;-73
2023/08/03 09:17:16;;;;;;;48.40;22.33;;;19.00;1.00;;;;;;5003321;28;20282;-73
2023/08/03 09:19:42;;;;;;;55.70;23.97;;;19.20;1.00;;;;;;5006148;28;20437;-73
2023/08/03 09:22:08;;;;;;;5.63;2.47;;;19.50;1.00;;;;;;5005745;28;20496;-73
2023/08/03 09:24:33;;;;;;;24.17;9.53;;;19.70;1.00;;;;;;5006984;28;20656;-73
2023/08/03 09:26:59;;;;;;;5.13;1.80;;;20.10;1.00;;;;;;5007009;28;20182;-74
2023/08/03 09:29:30;;;;;;;18.50;8.33;;;20.10;1.00;;;;;;5006305;28;20191;-73
2023/08/03 09:32:04;;;;;;;69.00;22.73;;;20.30;1.00;;;;;;5005854;28;20261;-73
2023/08/03 09:34:37;;;;;;;116.00;46.20;;;20.20;1.00;;;;;;5003520;28;20516;-73
2023/08/03 09:37:03;;;;;;;83.37;35.50;;;20.10;1.00;;;;;;5003461;28;20977;-73
2023/08/03 09:39:34;;;;;;;118.97;44.20;;;20.10;1.00;;;;;;5005337;28;20628;-73
2023/08/03 09:42:05;;;;;;;112.03;49.70;;;20.10;1.00;;;;;;5004721;28;20488;-73
2023/08/03 09:44:34;;;;;;;39.93;19.43;;;20.10;1.00;;;;;;5005968;28;20806;-72
2023/08/03 09:47:01;;;;;;;53.83;24.50;;;20.20;1.00;;;;;;5005624;28;20441;-73
2023/08/03 09:49:27;;;;;;;18.73;7.73;;;20.30;1.00;;;;;;5008387;28;20472;-73
2023/08/03 09:51:57;;;;;;;9.93;4.47;;;20.70;1.00;;;;;;5005487;28;20568;-73
2023/08/03 09:54:38;;;;;;;15.17;6.37;;;20.90;1.00;;;;;;5005894;28;20468;-72
2023/08/03 09:57:08;;;;;;;8.20;3.00;;;20.90;1.00;;;;;;5004780;28;20445;-72
2023/08/03 09:59:36;;;;;;;7.50;3.30;;;20.80;1.00;;;;;;5008437;28;20445;-72
2023/08/03 10:02:07;;;;;;;6.67;2.10;;;20.60;1.00;;;;;;5005147;28;20527;-72
2023/08/03 10:04:37;;;;;;;5.60;2.03;;;20.80;1.00;;;;;;5022824;28;20948;-73
2023/08/03 10:07:07;;;;;;;7.13;2.53;;;20.60;1.00;;;;;;5005092;28;20796;-73
2023/08/03 10:09:40;;;;;;;5.63;1.97;;;20.60;1.00;;;;;;5007853;28;20511;-73
2023/08/03 10:12:11;;;;;;;2.93;1.30;;;20.50;1.00;;;;;;5005722;28;20479;-73
2023/08/03 10:14:42;;;;;;;6.47;1.70;;;20.90;1.00;;;;;;5002828;28;20449;-73
2023/08/03 10:17:09;;;;;;;4.87;1.43;;;;;;;;;;5001822;28;20449;-73
2023/08/03 10:19:36;;;;;;;4.37;1.30;;;22.00;1.00;;;;;;5007608;28;20499;-73
2023/08/03 10:22:02;;;;;;;5.87;1.73;;;21.80;1.00;;;;;;5005042;28;20477;-73
2023/08/03 10:24:28;;;;;;;4.00;1.60;;;21.30;1.00;;;;;;5006490;28;20947;-73
2023/08/03 10:27:17;;;;;;;5.10;1.53;;;21.20;1.00;;;;;;5008838;28;20181;-73
2023/08/03 10:29:53;;;;;;;4.20;1.50;;;22.10;1.00;;;;;;5009616;28;20970;-73
2023/08/03 10:32:22;;;;;;;4.23;1.50;;;22.40;1.00;;;;;;5008371;28;20503;-71
2023/08/03 10:34:48;;;;;;;4.63;1.40;;;22.10;1.00;;;;;;5009146;28;20432;-76
2023/08/03 10:37:13;;;;;;;4.13;1.43;;;22.10;1.00;;;;;;5010540;28;20441;-75
2023/08/03 10:39:47;;;;;;;5.00;1.60;;;21.70;1.00;;;;;;5007502;28;20436;-76
2023/08/03 10:42:21;;;;;;;5.67;1.37;;;21.60;1.00;;;;;;5011621;28;20288;-77
2023/08/03 10:44:47;;;;;;;4.30;1.50;;;21.70;1.00;;;;;;5010428;28;20806;-76
2023/08/03 10:47:23;;;;;;;3.60;1.30;;;22.50;1.00;;;;;;5010238;28;20520;-75
2023/08/03 10:49:50;;;;;;;6.53;1.70;;;22.70;1.00;;;;;;5010565;28;20212;-76
2023/08/03 10:52:24;;;;;;;4.27;1.30;;;22.60;1.00;;;;;;5007125;28;20465;-75
2023/08/03 10:54:50;;;;;;;4.63;1.50;;;22.70;1.00;;;;;;5010768;28;20428;-76
2023/08/03 10:57:24;;;;;;;3.50;1.47;;;22.30;1.00;;;;;;5010842;28;20448;-75
2023/08/03 10:59:54;;;;;;;3.93;1.40;;;21.60;1.00;;;;;;5010793;28;20447;-76
2023/08/03 11:02:31;;;;;;;4.67;1.57;;;21.60;1.00;;;;;;5003216;28;20594;-75
2023/08/03 11:04:59;;;;;;;4.00;1.50;;;21.50;1.00;;;;;;5010842;28;20975;-75
2023/08/03 11:07:38;;;;;;;4.13;1.40;;;21.60;1.00;;;;;;5007048;28;20441;-76
2023/08/03 11:10:06;;;;;;;4.37;1.30;;;22.10;1.00;;;;;;5009697;28;20490;-77
2023/08/03 11:12:33;;;;;;;3.33;1.30;;;22.10;1.00;;;;;;5011293;28;20448;-76
2023/08/03 11:15:00;;;;;;;4.23;1.53;;;22.60;1.00;;;;;;5010007;28;20820;-75
2023/08/03 11:17:28;;;;;;;5.00;1.30;;;22.90;1.00;;;;;;5010435;28;20452;-75
2023/08/03 11:19:55;;;;;;;3.90;1.50;;;22.80;1.00;;;;;;5009424;28;20448;-76
2023/08/03 11:22:22;;;;;;;3.03;1.43;;;22.20;1.00;;;;;;5007984;28;20468;-76
2023/08/03 11:24:57;;;;;;;4.37;1.30;;;22.10;1.00;;;;;;5010990;28;20459;-75
2023/08/03 11:27:23;;;;;;;3.07;1.20;;;22.30;1.00;;;;;;5009129;28;20467;-76
2023/08/03 11:29:51;;;;;;;2.50;1.10;;;22.70;1.00;;;;;;5009270;28;20445;-75
2023/08/03 11:32:24;;;;;;;6.00;1.30;;;22.80;1.00;;;;;;5004187;28;20201;-75
2023/08/03 11:34:55;;;;;;;3.50;1.43;;;23.10;1.00;;;;;;5009408;28;20535;-76
2023/08/03 11:37:21;;;;;;;4.43;1.37;;;22.70;1.00;;;;;;5008148;28;20914;-75
2023/08/03 11:39:46;;;;;;;3.70;1.20;;;23.10;1.00;;;;;;5009190;28;20458;-75
2023/08/03 11:42:12;;;;;;;3.20;1.20;;;23.50;1.00;;;;;;5008534;28;20505;-75
2023/08/03 11:44:39;;;;;;;4.10;1.13;;;23.70;1.00;;;;;;5009197;28;20221;-75
2023/08/03 11:47:06;;;;;;;3.77;1.10;;;24.20;1.00;;;;;;5008063;28;20178;-75
2023/08/03 11:49:32;;;;;;;3.00;1.10;;;24.30;1.00;;;;;;5009153;28;20528;-76
2023/08/03 11:52:01;;;;;;;3.97;1.57;;;23.40;1.00;;;;;;5007453;28;20493;-75
2023/08/03 11:54:32;;;;;;;4.27;1.37;;;23.30;1.00;;;;;;5010922;28;20954;-74
2023/08/03 11:58:07;;;;;;;4.60;1.37;;;23.30;1.00;;;;;;5010045;28;20468;-76
2023/08/03 11:59:48;;;;;;;2.57;1.20;;;23.30;1.00;;;;;;5005646;28;20961;-78
2023/08/03 12:02:14;;;;;;;3.13;1.20;;;23.10;1.00;;;;;;5007744;28;20469;-75
2023/08/03 12:04:40;;;;;;;3.97;1.10;;;23.20;1.00;;;;;;5010203;28;20429;-75
2023/08/03 12:07:07;;;;;;;4.10;1.20;;;23.50;1.00;;;;;;5006320;28;20261;-75
2023/08/03 12:09:40;;;;;;;4.23;1.30;;;23.80;1.00;;;;;;5009888;28;20528;-76
2023/08/03 12:12:09;;;;;;;2.63;0.90;;;24.30;1.00;;;;;;5007119;28;20475;-76
2023/08/03 12:14:35;;;;;;;4.30;1.30;;;24.00;1.00;;;;;;5009901;28;20527;-74
2023/08/03 12:17:01;;;;;;;5.80;1.20;;;23.70;1.00;;;;;;5008117;28;20591;-76
2023/08/03 12:19:32;;;;;;;3.33;1.17;;;23.80;1.00;;;;;;5024008;28;20182;-75
2023/08/03 12:21:59;;;;;;;3.03;1.17;;;23.50;1.00;;;;;;5015612;28;20501;-75
2023/08/03 12:24:25;;;;;;;4.27;1.40;;;23.40;1.00;;;;;;5008627;28;20447;-77
2023/08/03 12:26:50;;;;;;;2.40;1.20;;;23.30;1.00;;;;;;5008087;28;20429;-75
2023/08/03 12:29:16;;;;;;;2.97;1.20;;;23.30;1.00;;;;;;5007269;28;20656;-75
2023/08/03 12:31:41;;;;;;;3.00;1.17;;;23.30;1.00;;;;;;5007134;28;20284;-76
2023/08/03 12:34:07;;;;;;;4.27;1.30;;;23.50;1.00;;;;;;5008657;28;20178;-77
2023/08/03 12:36:34;;;;;;;3.03;1.10;;;23.80;1.00;;;;;;5010802;28;20799;-76
2023/08/03 12:38:59;;;;;;;3.23;1.30;;;24.00;1.00;;;;;;5009083;28;20177;-77
2023/08/03 12:41:25;;;;;;;3.20;1.10;;;23.80;1.00;;;;;;5011174;28;20865;-75
2023/08/03 12:43:50;;;;;;;3.70;1.30;;;24.10;1.00;;;;;;5009633;28;20266;-75
2023/08/03 12:46:16;;;;;;;4.87;1.37;;;25.00;1.00;;;;;;5010567;28;20178;-76
2023/08/03 12:48:42;;;;;;;3.13;1.00;;;26.00;1.00;;;;;;5010630;28;20572;-76
2023/08/03 12:51:09;;;;;;;2.90;0.97;;;25.80;1.00;;;;;;5010483;28;20536;-78
2023/08/03 12:53:36;;;;;;;2.63;1.00;;;25.70;1.00;;;;;;5010717;28;20177;-76